CMXK1: Otter Creek At Climax

Data processed at Thu May 23 2019 23:50


All information presented herein is the property of the government of the United States of America and may be revised or deleted at any time without prior notice.
Dissemination of this information without the expressed written consent of the Public Affairs Office, Tulsa District U.S. Army Corps of Engineers is strictly prohibited.
These data are gathered electronically and, as presented, have not undergone any form of quality control. These data are not guaranteed to be valid or correct.
Go to home page.
Go to station list.
Go to home page.

Upstream stations:

Downstream station:
Previous Day
Next Day
Current Day
    
SHEF ID:       CMXK1     OTTER C AT CLIMAX, KS
STATION TYPE:  
Regulating: Stage =    19.00, Flow =     8581

               PRECIP     STAGE  STAGE(2)  RIV-FLOW  BAT-LOAD
                   in        ft        ft       cfs      volt
              Ccp-Rev   Ccp-Rev   Ccp-Rev   Ccp-Rev   Ccp-Rev
(US/Central)
05/23 00:00      0.01      9.08      ----      2280     12.97
05/23 01:00      0.02      9.08      ----      2280     12.97
05/23 02:00      0.00      9.06      ----      2270     12.97
05/23 03:00      0.02      9.04      ----      2261     12.97
05/23 04:00      0.00      9.06      ----      2270     12.97
05/23 05:00      0.00      9.09      ----      2284     12.97
05/23 06:00      0.05      9.12      ----      2298     12.97
05/23 07:00      0.01      9.16      ----      2317     12.97
05/23 08:00      0.01      9.24      ----      2354     12.97
05/23 09:00      0.00      9.28      ----      2373     12.97
05/23 10:00      0.00      9.35      ----      2406     13.05
05/23 11:00      0.00      9.43      ----      2443     13.29
05/23 12:00      0.00      9.53      ----      2491     13.37
05/23 13:00      0.00      9.55      ----      2501     13.44
05/23 14:00      0.00      9.49      ----      2472     13.44
05/23 15:00      0.00      9.44      ----      2448     13.53
05/23 16:00      0.00      9.41      ----      2434     13.84
05/23 17:00      0.00      9.39      ----      2425     13.84
05/23 18:00      0.00      9.38      ----      2420     13.37
05/23 19:00      0.00      9.38      ----      2420     13.60
05/23 20:00      0.00      9.39      ----      2425     13.21
05/23 21:00      0.00      9.40      ----      2429     13.05
05/23 22:00      0.00      9.41      ----      2434     13.05
05/23 23:00      0.00      9.42      ----      2439     12.97